sensor_id;sensor_type;location;lat;lon;timestamp;P1;durP1;ratioP1;P2;durP2;ratioP2
33108;SDS011;19481;51.118;6.940;2023-01-08T00:00:20;3.10;;;1.50;;
33108;SDS011;19481;51.118;6.940;2023-01-08T00:05:22;1.67;;;1.38;;
33108;SDS011;19481;51.118;6.940;2023-01-08T00:10:23;2.60;;;1.20;;
33108;SDS011;19481;51.118;6.940;2023-01-08T00:15:26;1.30;;;1.20;;
33108;SDS011;19481;51.118;6.940;2023-01-08T00:20:29;1.45;;;1.30;;
33108;SDS011;19481;51.118;6.940;2023-01-08T00:25:31;1.52;;;1.35;;
33108;SDS011;19481;51.118;6.940;2023-01-08T00:30:34;1.50;;;1.15;;
33108;SDS011;19481;51.118;6.940;2023-01-08T00:35:36;1.48;;;1.35;;
33108;SDS011;19481;51.118;6.940;2023-01-08T00:40:39;1.58;;;1.42;;
33108;SDS011;19481;51.118;6.940;2023-01-08T00:45:42;1.55;;;1.45;;
33108;SDS011;19481;51.118;6.940;2023-01-08T00:50:43;1.38;;;1.15;;
33108;SDS011;19481;51.118;6.940;2023-01-08T00:55:45;1.30;;;1.20;;
33108;SDS011;19481;51.118;6.940;2023-01-08T01:00:48;1.23;;;1.13;;
33108;SDS011;19481;51.118;6.940;2023-01-08T01:05:53;2.45;;;1.40;;
33108;SDS011;19481;51.118;6.940;2023-01-08T01:11:00;2.60;;;1.30;;
33108;SDS011;19481;51.118;6.940;2023-01-08T01:16:08;1.40;;;1.30;;
33108;SDS011;19481;51.118;6.940;2023-01-08T01:21:10;1.67;;;0.95;;
33108;SDS011;19481;51.118;6.940;2023-01-08T01:26:14;1.30;;;1.20;;
33108;SDS011;19481;51.118;6.940;2023-01-08T01:31:18;1.55;;;1.33;;
33108;SDS011;19481;51.118;6.940;2023-01-08T01:36:20;3.28;;;1.20;;
33108;SDS011;19481;51.118;6.940;2023-01-08T01:41:24;1.40;;;1.30;;
33108;SDS011;19481;51.118;6.940;2023-01-08T01:46:34;1.58;;;1.40;;
33108;SDS011;19481;51.118;6.940;2023-01-08T01:51:38;1.55;;;1.25;;
33108;SDS011;19481;51.118;6.940;2023-01-08T01:56:43;3.17;;;1.48;;
33108;SDS011;19481;51.118;6.940;2023-01-08T02:01:47;1.60;;;1.23;;
33108;SDS011;19481;51.118;6.940;2023-01-08T02:06:52;1.92;;;1.60;;
33108;SDS011;19481;51.118;6.940;2023-01-08T02:12:01;3.22;;;1.50;;
33108;SDS011;19481;51.118;6.940;2023-01-08T02:17:19;2.08;;;1.35;;
33108;SDS011;19481;51.118;6.940;2023-01-08T02:22:29;1.88;;;1.50;;
33108;SDS011;19481;51.118;6.940;2023-01-08T02:27:43;3.00;;;1.50;;
33108;SDS011;19481;51.118;6.940;2023-01-08T02:32:48;4.97;;;1.30;;
33108;SDS011;19481;51.118;6.940;2023-01-08T02:37:50;1.98;;;1.63;;
33108;SDS011;19481;51.118;6.940;2023-01-08T02:42:54;1.65;;;1.55;;
33108;SDS011;19481;51.118;6.940;2023-01-08T02:48:01;2.67;;;1.77;;
33108;SDS011;19481;51.118;6.940;2023-01-08T02:53:09;2.08;;;1.65;;
33108;SDS011;19481;51.118;6.940;2023-01-08T02:58:16;1.77;;;1.67;;
33108;SDS011;19481;51.118;6.940;2023-01-08T03:03:20;2.80;;;1.67;;
33108;SDS011;19481;51.118;6.940;2023-01-08T03:08:24;2.35;;;1.50;;
33108;SDS011;19481;51.118;6.940;2023-01-08T03:13:29;2.55;;;1.98;;
33108;SDS011;19481;51.118;6.940;2023-01-08T03:18:35;1.95;;;1.73;;
33108;SDS011;19481;51.118;6.940;2023-01-08T03:23:41;1.77;;;1.63;;
33108;SDS011;19481;51.118;6.940;2023-01-08T03:28:46;1.67;;;1.58;;
33108;SDS011;19481;51.118;6.940;2023-01-08T03:33:52;1.70;;;1.60;;
33108;SDS011;19481;51.118;6.940;2023-01-08T03:38:57;1.92;;;1.80;;
33108;SDS011;19481;51.118;6.940;2023-01-08T03:44:02;1.83;;;1.58;;
33108;SDS011;19481;51.118;6.940;2023-01-08T03:49:05;4.07;;;2.00;;
33108;SDS011;19481;51.118;6.940;2023-01-08T03:54:09;1.98;;;1.80;;
33108;SDS011;19481;51.118;6.940;2023-01-08T03:59:16;2.83;;;1.63;;
33108;SDS011;19481;51.118;6.940;2023-01-08T04:04:18;3.22;;;1.70;;
33108;SDS011;19481;51.118;6.940;2023-01-08T04:09:19;2.97;;;1.90;;
33108;SDS011;19481;51.118;6.940;2023-01-08T04:14:22;3.22;;;2.20;;
33108;SDS011;19481;51.118;6.940;2023-01-08T04:19:24;2.70;;;2.10;;
33108;SDS011;19481;51.118;6.940;2023-01-08T04:24:25;1.95;;;1.85;;
33108;SDS011;19481;51.118;6.940;2023-01-08T04:29:28;2.88;;;2.00;;
33108;SDS011;19481;51.118;6.940;2023-01-08T04:34:30;3.60;;;1.98;;
33108;SDS011;19481;51.118;6.940;2023-01-08T04:39:31;3.15;;;1.98;;
33108;SDS011;19481;51.118;6.940;2023-01-08T04:44:34;2.83;;;2.33;;
33108;SDS011;19481;51.118;6.940;2023-01-08T04:49:36;2.53;;;1.90;;
33108;SDS011;19481;51.118;6.940;2023-01-08T04:54:37;3.88;;;2.40;;
33108;SDS011;19481;51.118;6.940;2023-01-08T04:59:40;3.50;;;1.83;;
33108;SDS011;19481;51.118;6.940;2023-01-08T05:04:42;1.90;;;1.80;;
33108;SDS011;19481;51.118;6.940;2023-01-08T05:09:43;3.90;;;1.80;;
33108;SDS011;19481;51.118;6.940;2023-01-08T05:14:46;2.63;;;1.90;;
33108;SDS011;19481;51.118;6.940;2023-01-08T05:19:48;3.33;;;1.65;;
33108;SDS011;19481;51.118;6.940;2023-01-08T05:24:49;1.88;;;1.77;;
33108;SDS011;19481;51.118;6.940;2023-01-08T05:29:52;3.55;;;1.90;;
33108;SDS011;19481;51.118;6.940;2023-01-08T05:34:54;2.45;;;1.50;;
33108;SDS011;19481;51.118;6.940;2023-01-08T05:39:56;2.90;;;1.60;;
33108;SDS011;19481;51.118;6.940;2023-01-08T05:44:58;1.50;;;1.40;;
33108;SDS011;19481;51.118;6.940;2023-01-08T05:50:01;1.17;;;1.17;;
33108;SDS011;19481;51.118;6.940;2023-01-08T05:55:02;3.08;;;1.05;;
33108;SDS011;19481;51.118;6.940;2023-01-08T06:00:06;1.33;;;0.95;;
33108;SDS011;19481;51.118;6.940;2023-01-08T06:05:09;1.08;;;1.05;;
33108;SDS011;19481;51.118;6.940;2023-01-08T06:10:11;0.98;;;0.98;;
33108;SDS011;19481;51.118;6.940;2023-01-08T06:15:14;1.00;;;1.00;;
33108;SDS011;19481;51.118;6.940;2023-01-08T06:20:16;2.58;;;0.88;;
33108;SDS011;19481;51.118;6.940;2023-01-08T06:25:18;0.80;;;0.80;;
33108;SDS011;19481;51.118;6.940;2023-01-08T06:30:21;1.35;;;0.90;;
33108;SDS011;19481;51.118;6.940;2023-01-08T06:35:23;0.90;;;0.90;;
33108;SDS011;19481;51.118;6.940;2023-01-08T06:40:25;0.93;;;0.82;;
33108;SDS011;19481;51.118;6.940;2023-01-08T06:45:28;1.10;;;0.85;;
33108;SDS011;19481;51.118;6.940;2023-01-08T06:50:30;0.80;;;0.75;;
33108;SDS011;19481;51.118;6.940;2023-01-08T06:55:31;1.75;;;0.70;;
33108;SDS011;19481;51.118;6.940;2023-01-08T07:00:34;0.73;;;0.73;;
33108;SDS011;19481;51.118;6.940;2023-01-08T07:05:36;3.13;;;0.75;;
33108;SDS011;19481;51.118;6.940;2023-01-08T07:10:38;2.03;;;0.70;;
33108;SDS011;19481;51.118;6.940;2023-01-08T07:15:41;2.70;;;0.82;;
33108;SDS011;19481;51.118;6.940;2023-01-08T07:20:43;0.50;;;0.50;;
33108;SDS011;19481;51.118;6.940;2023-01-08T07:25:45;4.10;;;0.77;;
33108;SDS011;19481;51.118;6.940;2023-01-08T07:30:48;1.77;;;0.68;;
33108;SDS011;19481;51.118;6.940;2023-01-08T07:35:50;1.55;;;0.80;;
33108;SDS011;19481;51.118;6.940;2023-01-08T07:40:52;1.67;;;0.82;;
33108;SDS011;19481;51.118;6.940;2023-01-08T07:45:55;1.33;;;0.70;;
33108;SDS011;19481;51.118;6.940;2023-01-08T07:50:59;1.38;;;0.90;;
33108;SDS011;19481;51.118;6.940;2023-01-08T07:56:02;1.13;;;0.90;;
33108;SDS011;19481;51.118;6.940;2023-01-08T08:01:08;2.05;;;0.88;;
33108;SDS011;19481;51.118;6.940;2023-01-08T08:06:11;1.27;;;1.00;;
33108;SDS011;19481;51.118;6.940;2023-01-08T08:11:12;2.40;;;0.80;;
33108;SDS011;19481;51.118;6.940;2023-01-08T08:16:15;2.55;;;1.00;;
33108;SDS011;19481;51.118;6.940;2023-01-08T08:21:17;1.05;;;0.90;;
33108;SDS011;19481;51.118;6.940;2023-01-08T08:26:19;1.85;;;0.75;;
33108;SDS011;19481;51.118;6.940;2023-01-08T08:31:23;2.45;;;0.90;;
33108;SDS011;19481;51.118;6.940;2023-01-08T08:36:26;3.85;;;1.30;;
33108;SDS011;19481;51.118;6.940;2023-01-08T08:41:28;1.55;;;1.13;;
33108;SDS011;19481;51.118;6.940;2023-01-08T08:46:31;3.53;;;1.15;;
33108;SDS011;19481;51.118;6.940;2023-01-08T08:51:33;4.13;;;1.20;;
33108;SDS011;19481;51.118;6.940;2023-01-08T08:56:35;1.02;;;0.98;;
33108;SDS011;19481;51.118;6.940;2023-01-08T09:01:37;6.45;;;1.23;;
33108;SDS011;19481;51.118;6.940;2023-01-08T09:06:39;3.92;;;1.50;;
33108;SDS011;19481;51.118;6.940;2023-01-08T09:11:41;4.10;;;1.08;;
33108;SDS011;19481;51.118;6.940;2023-01-08T09:16:44;3.08;;;1.30;;
33108;SDS011;19481;51.118;6.940;2023-01-08T09:21:45;2.38;;;1.10;;
33108;SDS011;19481;51.118;6.940;2023-01-08T09:26:47;2.97;;;1.20;;
33108;SDS011;19481;51.118;6.940;2023-01-08T09:31:50;6.82;;;1.70;;
33108;SDS011;19481;51.118;6.940;2023-01-08T09:36:52;2.35;;;1.30;;
33108;SDS011;19481;51.118;6.940;2023-01-08T09:41:53;6.68;;;1.45;;
33108;SDS011;19481;51.118;6.940;2023-01-08T09:46:58;10.05;;;1.10;;
33108;SDS011;19481;51.118;6.940;2023-01-08T09:52:00;3.97;;;1.15;;
33108;SDS011;19481;51.118;6.940;2023-01-08T09:57:02;3.80;;;1.23;;
33108;SDS011;19481;51.118;6.940;2023-01-08T10:02:09;1.75;;;1.02;;
33108;SDS011;19481;51.118;6.940;2023-01-08T10:07:19;2.15;;;0.95;;
33108;SDS011;19481;51.118;6.940;2023-01-08T10:12:24;1.33;;;1.20;;
33108;SDS011;19481;51.118;6.940;2023-01-08T10:17:30;1.63;;;0.90;;
33108;SDS011;19481;51.118;6.940;2023-01-08T10:22:37;1.15;;;0.80;;
33108;SDS011;19481;51.118;6.940;2023-01-08T10:27:46;2.17;;;0.90;;
33108;SDS011;19481;51.118;6.940;2023-01-08T10:32:51;1.23;;;0.90;;
33108;SDS011;19481;51.118;6.940;2023-01-08T10:37:54;1.65;;;0.85;;
33108;SDS011;19481;51.118;6.940;2023-01-08T10:42:57;4.07;;;1.10;;
33108;SDS011;19481;51.118;6.940;2023-01-08T10:48:11;2.25;;;0.90;;
33108;SDS011;19481;51.118;6.940;2023-01-08T10:53:20;1.27;;;0.80;;
33108;SDS011;19481;51.118;6.940;2023-01-08T10:58:26;2.67;;;0.95;;
33108;SDS011;19481;51.118;6.940;2023-01-08T11:03:30;1.40;;;0.82;;
33108;SDS011;19481;51.118;6.940;2023-01-08T11:08:32;1.48;;;0.80;;
33108;SDS011;19481;51.118;6.940;2023-01-08T11:13:34;1.80;;;0.90;;
33108;SDS011;19481;51.118;6.940;2023-01-08T11:18:42;1.85;;;1.00;;
33108;SDS011;19481;51.118;6.940;2023-01-08T11:23:47;1.35;;;0.90;;
33108;SDS011;19481;51.118;6.940;2023-01-08T11:29:06;0.70;;;0.60;;
33108;SDS011;19481;51.118;6.940;2023-01-08T11:39:16;2.17;;;0.88;;
33108;SDS011;19481;51.118;6.940;2023-01-08T11:44:22;3.08;;;0.70;;
33108;SDS011;19481;51.118;6.940;2023-01-08T11:49:38;2.03;;;1.00;;
33108;SDS011;19481;51.118;6.940;2023-01-08T11:54:58;0.75;;;0.70;;
33108;SDS011;19481;51.118;6.940;2023-01-08T12:00:10;2.25;;;0.93;;
33108;SDS011;19481;51.118;6.940;2023-01-08T12:05:25;1.30;;;0.90;;
33108;SDS011;19481;51.118;6.940;2023-01-08T12:10:32;1.27;;;0.70;;
33108;SDS011;19481;51.118;6.940;2023-01-08T12:15:46;2.72;;;0.90;;
33108;SDS011;19481;51.118;6.940;2023-01-08T12:20:56;1.58;;;1.35;;
33108;SDS011;19481;51.118;6.940;2023-01-08T12:26:07;1.15;;;0.80;;
33108;SDS011;19481;51.118;6.940;2023-01-08T12:31:21;1.10;;;0.80;;
33108;SDS011;19481;51.118;6.940;2023-01-08T12:36:45;0.65;;;0.65;;
33108;SDS011;19481;51.118;6.940;2023-01-08T12:41:49;0.93;;;0.75;;
33108;SDS011;19481;51.118;6.940;2023-01-08T12:46:54;1.50;;;0.60;;
33108;SDS011;19481;51.118;6.940;2023-01-08T12:52:00;1.92;;;0.77;;
33108;SDS011;19481;51.118;6.940;2023-01-08T12:57:08;0.70;;;0.70;;
33108;SDS011;19481;51.118;6.940;2023-01-08T13:02:18;0.60;;;0.60;;
33108;SDS011;19481;51.118;6.940;2023-01-08T13:07:34;1.00;;;0.60;;
33108;SDS011;19481;51.118;6.940;2023-01-08T13:12:42;1.05;;;0.65;;
33108;SDS011;19481;51.118;6.940;2023-01-08T13:17:49;0.50;;;0.50;;
33108;SDS011;19481;51.118;6.940;2023-01-08T13:22:53;0.60;;;0.60;;
33108;SDS011;19481;51.118;6.940;2023-01-08T13:27:56;0.60;;;0.60;;
33108;SDS011;19481;51.118;6.940;2023-01-08T13:32:58;0.70;;;0.70;;
33108;SDS011;19481;51.118;6.940;2023-01-08T13:38:13;0.70;;;0.70;;
33108;SDS011;19481;51.118;6.940;2023-01-08T13:43:16;1.45;;;0.60;;
33108;SDS011;19481;51.118;6.940;2023-01-08T13:48:21;0.57;;;0.57;;
33108;SDS011;19481;51.118;6.940;2023-01-08T13:53:25;0.70;;;0.70;;
33108;SDS011;19481;51.118;6.940;2023-01-08T13:58:27;1.25;;;0.57;;
33108;SDS011;19481;51.118;6.940;2023-01-08T14:03:34;0.57;;;0.57;;
33108;SDS011;19481;51.118;6.940;2023-01-08T14:08:47;1.02;;;0.60;;
33108;SDS011;19481;51.118;6.940;2023-01-08T14:13:49;1.88;;;0.60;;
33108;SDS011;19481;51.118;6.940;2023-01-08T14:18:52;2.25;;;1.10;;
33108;SDS011;19481;51.118;6.940;2023-01-08T14:23:57;0.60;;;0.60;;
33108;SDS011;19481;51.118;6.940;2023-01-08T14:28:58;0.73;;;0.70;;
33108;SDS011;19481;51.118;6.940;2023-01-08T14:34:01;0.60;;;0.60;;
33108;SDS011;19481;51.118;6.940;2023-01-08T14:39:10;0.98;;;0.70;;
33108;SDS011;19481;51.118;6.940;2023-01-08T14:44:12;0.70;;;0.70;;
33108;SDS011;19481;51.118;6.940;2023-01-08T14:49:17;0.73;;;0.73;;
33108;SDS011;19481;51.118;6.940;2023-01-08T14:54:25;1.20;;;0.63;;
33108;SDS011;19481;51.118;6.940;2023-01-08T14:59:32;0.60;;;0.60;;
33108;SDS011;19481;51.118;6.940;2023-01-08T15:04:36;0.68;;;0.60;;
33108;SDS011;19481;51.118;6.940;2023-01-08T15:09:39;1.13;;;0.70;;
33108;SDS011;19481;51.118;6.940;2023-01-08T15:14:41;0.70;;;0.70;;
33108;SDS011;19481;51.118;6.940;2023-01-08T15:19:43;2.85;;;0.77;;
33108;SDS011;19481;51.118;6.940;2023-01-08T15:24:53;0.80;;;0.80;;
33108;SDS011;19481;51.118;6.940;2023-01-08T15:29:58;0.88;;;0.88;;
33108;SDS011;19481;51.118;6.940;2023-01-08T15:35:00;2.05;;;0.95;;
33108;SDS011;19481;51.118;6.940;2023-01-08T15:40:04;3.58;;;1.02;;
33108;SDS011;19481;51.118;6.940;2023-01-08T15:45:09;0.95;;;0.80;;
33108;SDS011;19481;51.118;6.940;2023-01-08T15:50:13;0.95;;;0.88;;
33108;SDS011;19481;51.118;6.940;2023-01-08T15:55:17;1.42;;;0.98;;
33108;SDS011;19481;51.118;6.940;2023-01-08T16:00:20;2.45;;;1.00;;
33108;SDS011;19481;51.118;6.940;2023-01-08T16:05:22;2.58;;;0.90;;
33108;SDS011;19481;51.118;6.940;2023-01-08T16:10:26;0.82;;;0.82;;
33108;SDS011;19481;51.118;6.940;2023-01-08T16:15:28;0.82;;;0.70;;
33108;SDS011;19481;51.118;6.940;2023-01-08T16:20:30;3.63;;;0.90;;
33108;SDS011;19481;51.118;6.940;2023-01-08T16:25:32;5.00;;;0.90;;
33108;SDS011;19481;51.118;6.940;2023-01-08T16:30:34;3.63;;;1.10;;
33108;SDS011;19481;51.118;6.940;2023-01-08T16:35:36;0.82;;;0.73;;
33108;SDS011;19481;51.118;6.940;2023-01-08T16:40:39;2.40;;;0.77;;
33108;SDS011;19481;51.118;6.940;2023-01-08T16:45:41;1.20;;;0.80;;
33108;SDS011;19481;51.118;6.940;2023-01-08T16:50:45;1.45;;;0.70;;
33108;SDS011;19481;51.118;6.940;2023-01-08T16:55:49;0.80;;;0.80;;
33108;SDS011;19481;51.118;6.940;2023-01-08T17:00:50;1.45;;;0.77;;
33108;SDS011;19481;51.118;6.940;2023-01-08T17:05:52;2.13;;;1.20;;
33108;SDS011;19481;51.118;6.940;2023-01-08T17:11:01;1.15;;;1.08;;
33108;SDS011;19481;51.118;6.940;2023-01-08T17:21:10;2.53;;;1.10;;
33108;SDS011;19481;51.118;6.940;2023-01-08T17:26:14;1.40;;;1.10;;
33108;SDS011;19481;51.118;6.940;2023-01-08T17:31:17;1.33;;;0.90;;
33108;SDS011;19481;51.118;6.940;2023-01-08T17:36:20;1.20;;;1.10;;
33108;SDS011;19481;51.118;6.940;2023-01-08T17:41:25;2.13;;;1.02;;
33108;SDS011;19481;51.118;6.940;2023-01-08T17:46:44;1.70;;;1.10;;
33108;SDS011;19481;51.118;6.940;2023-01-08T17:51:45;1.48;;;1.38;;
33108;SDS011;19481;51.118;6.940;2023-01-08T17:56:48;1.42;;;1.33;;
33108;SDS011;19481;51.118;6.940;2023-01-08T18:01:52;2.05;;;1.25;;
33108;SDS011;19481;51.118;6.940;2023-01-08T18:06:54;1.90;;;1.50;;
33108;SDS011;19481;51.118;6.940;2023-01-08T18:11:57;1.77;;;1.10;;
33108;SDS011;19481;51.118;6.940;2023-01-08T18:16:59;2.78;;;1.40;;
33108;SDS011;19481;51.118;6.940;2023-01-08T18:22:00;1.00;;;0.90;;
33108;SDS011;19481;51.118;6.940;2023-01-08T18:27:03;3.50;;;1.08;;
33108;SDS011;19481;51.118;6.940;2023-01-08T18:32:05;1.98;;;1.20;;
33108;SDS011;19481;51.118;6.940;2023-01-08T18:37:07;4.05;;;1.20;;
33108;SDS011;19481;51.118;6.940;2023-01-08T18:42:10;2.70;;;1.30;;
33108;SDS011;19481;51.118;6.940;2023-01-08T18:47:27;1.75;;;1.20;;
33108;SDS011;19481;51.118;6.940;2023-01-08T18:52:29;2.78;;;1.75;;
33108;SDS011;19481;51.118;6.940;2023-01-08T18:57:32;2.92;;;1.30;;
33108;SDS011;19481;51.118;6.940;2023-01-08T19:02:34;2.03;;;1.50;;
33108;SDS011;19481;51.118;6.940;2023-01-08T19:07:36;2.92;;;1.88;;
33108;SDS011;19481;51.118;6.940;2023-01-08T19:12:41;2.80;;;1.90;;
33108;SDS011;19481;51.118;6.940;2023-01-08T19:17:43;4.80;;;1.42;;
33108;SDS011;19481;51.118;6.940;2023-01-08T19:22:44;2.17;;;1.60;;
33108;SDS011;19481;51.118;6.940;2023-01-08T19:27:47;1.83;;;1.52;;
33108;SDS011;19481;51.118;6.940;2023-01-08T19:32:49;2.40;;;1.60;;
33108;SDS011;19481;51.118;6.940;2023-01-08T19:37:51;2.25;;;1.40;;
33108;SDS011;19481;51.118;6.940;2023-01-08T19:42:54;2.95;;;1.50;;
33108;SDS011;19481;51.118;6.940;2023-01-08T19:48:18;4.22;;;1.60;;
33108;SDS011;19481;51.118;6.940;2023-01-08T19:53:20;3.08;;;1.38;;
33108;SDS011;19481;51.118;6.940;2023-01-08T19:58:23;2.50;;;1.50;;
33108;SDS011;19481;51.118;6.940;2023-01-08T20:03:28;2.90;;;1.40;;
33108;SDS011;19481;51.118;6.940;2023-01-08T20:08:29;3.28;;;1.45;;
33108;SDS011;19481;51.118;6.940;2023-01-08T20:13:33;1.08;;;1.08;;
33108;SDS011;19481;51.118;6.940;2023-01-08T20:18:35;1.20;;;1.08;;
33108;SDS011;19481;51.118;6.940;2023-01-08T20:23:37;2.08;;;1.40;;
33108;SDS011;19481;51.118;6.940;2023-01-08T20:28:41;3.92;;;1.50;;
33108;SDS011;19481;51.118;6.940;2023-01-08T20:33:44;2.65;;;1.25;;
33108;SDS011;19481;51.118;6.940;2023-01-08T20:38:49;3.50;;;1.27;;
33108;SDS011;19481;51.118;6.940;2023-01-08T20:43:53;1.88;;;1.20;;
33108;SDS011;19481;51.118;6.940;2023-01-08T20:48:56;3.13;;;1.42;;
33108;SDS011;19481;51.118;6.940;2023-01-08T20:54:02;3.38;;;1.27;;
33108;SDS011;19481;51.118;6.940;2023-01-08T20:59:07;1.35;;;1.25;;
33108;SDS011;19481;51.118;6.940;2023-01-08T21:04:09;1.38;;;1.27;;
33108;SDS011;19481;51.118;6.940;2023-01-08T21:09:10;1.50;;;1.20;;
33108;SDS011;19481;51.118;6.940;2023-01-08T21:14:14;1.27;;;1.17;;
33108;SDS011;19481;51.118;6.940;2023-01-08T21:19:16;1.50;;;1.13;;
33108;SDS011;19481;51.118;6.940;2023-01-08T21:24:17;2.35;;;1.10;;
33108;SDS011;19481;51.118;6.940;2023-01-08T21:29:20;1.10;;;1.00;;
33108;SDS011;19481;51.118;6.940;2023-01-08T21:34:22;3.22;;;1.27;;
33108;SDS011;19481;51.118;6.940;2023-01-08T21:39:25;3.75;;;1.20;;
33108;SDS011;19481;51.118;6.940;2023-01-08T21:44:28;1.05;;;1.05;;
33108;SDS011;19481;51.118;6.940;2023-01-08T21:49:47;2.40;;;1.00;;
33108;SDS011;19481;51.118;6.940;2023-01-08T21:54:49;2.70;;;1.42;;
33108;SDS011;19481;51.118;6.940;2023-01-08T21:59:52;3.53;;;1.10;;
33108;SDS011;19481;51.118;6.940;2023-01-08T22:04:54;1.60;;;1.33;;
33108;SDS011;19481;51.118;6.940;2023-01-08T22:09:56;1.67;;;1.08;;
33108;SDS011;19481;51.118;6.940;2023-01-08T22:15:00;8.15;;;1.27;;
33108;SDS011;19481;51.118;6.940;2023-01-08T22:20:02;1.70;;;1.33;;
33108;SDS011;19481;51.118;6.940;2023-01-08T22:25:07;2.50;;;1.33;;
33108;SDS011;19481;51.118;6.940;2023-01-08T22:30:11;1.50;;;1.00;;
33108;SDS011;19481;51.118;6.940;2023-01-08T22:35:13;1.70;;;1.30;;
33108;SDS011;19481;51.118;6.940;2023-01-08T22:40:14;2.45;;;1.10;;
33108;SDS011;19481;51.118;6.940;2023-01-08T22:45:18;1.20;;;1.00;;
33108;SDS011;19481;51.118;6.940;2023-01-08T22:50:19;1.60;;;1.50;;
33108;SDS011;19481;51.118;6.940;2023-01-08T22:55:21;2.28;;;1.00;;
33108;SDS011;19481;51.118;6.940;2023-01-08T23:00:24;1.58;;;1.10;;
33108;SDS011;19481;51.118;6.940;2023-01-08T23:05:26;2.22;;;1.23;;
33108;SDS011;19481;51.118;6.940;2023-01-08T23:10:27;2.85;;;1.10;;
33108;SDS011;19481;51.118;6.940;2023-01-08T23:15:30;1.52;;;1.20;;
33108;SDS011;19481;51.118;6.940;2023-01-08T23:20:32;1.27;;;1.10;;
33108;SDS011;19481;51.118;6.940;2023-01-08T23:25:34;2.20;;;1.48;;
33108;SDS011;19481;51.118;6.940;2023-01-08T23:30:37;2.15;;;1.50;;
33108;SDS011;19481;51.118;6.940;2023-01-08T23:35:40;1.48;;;1.38;;
33108;SDS011;19481;51.118;6.940;2023-01-08T23:40:42;2.58;;;1.73;;
33108;SDS011;19481;51.118;6.940;2023-01-08T23:45:46;1.92;;;1.60;;
33108;SDS011;19481;51.118;6.940;2023-01-08T23:50:47;1.35;;;1.25;;
33108;SDS011;19481;51.118;6.940;2023-01-08T23:55:49;1.45;;;0.70;;
